Time;durP1;ratioP1;P1;durP2;ratioP2;P2;SDS_P1;SDS_P2;PMS_P1;PMS_P2;Temp;Humidity;BMP_temperature;BMP_pressure;BME280_temperature;BME280_humidity;BME280_pressure;Samples;Min_cycle;Max_cycle;Signal;HPM_P1;HPM_P2
2022/01/07 00:01:06;;;;;;;6.07;2.28;;;;;;;20.19;37.69;101241.75;5062909;28;20040;-68
2022/01/07 00:03:34;;;;;;;6.00;2.35;;;;;;;20.18;37.61;101226.06;5060309;28;20044;-68
2022/01/07 00:06:00;;;;;;;5.32;2.28;;;;;;;20.09;37.74;101235.00;5063252;28;20035;-67
2022/01/07 00:08:27;;;;;;;3.00;1.98;;;;;;;20.04;37.93;101232.88;5059680;28;20044;-67
2022/01/07 00:10:53;;;;;;;4.65;2.58;;;;;;;19.99;37.99;101226.47;5064076;28;20543;-67
2022/01/07 00:13:19;;;;;;;4.32;2.47;;;;;;;19.87;38.04;101221.53;5059828;28;20037;-68
2022/01/07 00:15:45;;;;;;;4.10;2.17;;;;;;;19.84;38.28;101219.25;5058227;28;20040;-67
2022/01/07 00:18:11;;;;;;;5.50;2.47;;;;;;;19.87;38.05;101221.53;5060387;28;20051;-67
2022/01/07 00:20:37;;;;;;;4.13;2.63;;;;;;;19.84;38.05;101221.06;5058022;28;20040;-67
2022/01/07 00:23:03;;;;;;;4.28;2.40;;;;;;;19.78;38.30;101212.00;5061138;28;20040;-68
2022/01/07 00:25:29;;;;;;;5.53;2.28;;;;;;;19.75;38.28;101211.50;5059638;28;20040;-67
2022/01/07 00:27:55;;;;;;;4.63;2.72;;;;;;;19.71;38.30;101223.41;5060221;28;20055;-67
2022/01/07 00:30:21;;;;;;;5.00;2.40;;;;;;;19.75;38.33;101215.00;5041213;28;20032;-68
2022/01/07 00:32:48;;;;;;;3.45;2.10;;;;;;;19.77;38.39;101222.75;5064540;28;20457;-67
2022/01/07 00:35:16;;;;;;;3.97;2.42;;;;;;;19.77;38.15;101214.81;5056158;28;20040;-67
2022/01/07 00:37:43;;;;;;;3.67;2.22;;;;;;;19.69;38.31;101213.00;5058533;28;20051;-67
2022/01/07 00:40:14;;;;;;;5.22;2.20;;;;;;;19.66;38.37;101192.22;5061440;28;20067;-67
2022/01/07 00:42:40;;;;;;;5.63;2.40;;;;;;;19.59;38.50;101204.47;5059137;28;20041;-67
2022/01/07 00:45:06;;;;;;;3.40;2.13;;;;;;;19.70;38.39;101200.63;5062100;28;20041;-68
2022/01/07 00:47:31;;;;;;;4.28;2.40;;;;;;;19.56;38.30;101181.81;5058751;28;20051;-67
2022/01/07 00:49:58;;;;;;;4.95;2.58;;;;;;;19.51;38.64;101188.59;5058942;28;20087;-67
2022/01/07 00:52:24;;;;;;;4.40;2.53;;;;;;;19.64;38.29;101190.75;5058130;28;20025;-67
2022/01/07 00:54:49;;;;;;;3.28;2.30;;;;;;;19.55;38.42;101195.19;5059764;28;20083;-67
2022/01/07 00:57:15;;;;;;;4.07;2.55;;;;;;;19.49;38.50;101190.56;5059020;28;20072;-67
2022/01/07 00:59:42;;;;;;;4.20;2.38;;;;;;;19.48;38.47;101188.91;5060514;28;20040;-67
2022/01/07 01:02:08;;;;;;;4.63;2.50;;;;;;;19.45;38.64;101190.09;5060461;28;20083;-67
2022/01/07 01:04:33;;;;;;;3.33;2.35;;;;;;;19.46;38.71;101185.63;5060862;28;20036;-68
2022/01/07 01:06:59;;;;;;;5.40;2.88;;;;;;;19.46;38.61;101188.28;5062506;28;20169;-68
2022/01/07 01:09:25;;;;;;;5.30;2.50;;;;;;;19.41;38.43;101172.13;5058479;28;20490;-67
2022/01/07 01:11:50;;;;;;;4.47;2.60;;;;;;;19.37;38.78;101171.59;5062109;28;20501;-68
2022/01/07 01:14:16;;;;;;;6.32;2.72;;;;;;;19.33;38.87;101173.75;5062513;28;20033;-67
2022/01/07 01:16:44;;;;;;;3.90;2.38;;;;;;;19.28;38.83;101172.63;5060277;28;20072;-67
2022/01/07 01:19:09;;;;;;;4.35;2.40;;;;;;;19.27;38.91;101163.88;5059657;28;20094;-68
2022/01/07 01:21:36;;;;;;;2.80;2.00;;;;;;;19.22;38.75;101168.03;5058547;28;20041;-68
2022/01/07 01:24:03;;;;;;;4.82;2.60;;;;;;;19.28;38.76;101168.16;5058728;28;20044;-68
2022/01/07 01:26:28;;;;;;;6.00;3.25;;;;;;;19.28;38.70;101160.25;5058770;28;20107;-68
2022/01/07 01:28:54;;;;;;;5.68;2.95;;;;;;;19.25;38.85;101155.31;5061223;28;20115;-69
2022/01/07 01:31:21;;;;;;;4.28;2.63;;;;;;;19.30;38.79;101145.06;5060206;28;20049;-68
2022/01/07 01:33:47;;;;;;;4.20;2.40;;;;;;;19.22;38.81;101138.97;5058282;28;20155;-68
2022/01/07 01:36:13;;;;;;;3.38;2.10;;;;;;;19.14;39.09;101137.16;5057232;28;20101;-68
2022/01/07 01:38:39;;;;;;;4.00;2.33;;;;;;;19.22;38.90;101138.97;5055483;28;20024;-69
2022/01/07 01:41:06;;;;;;;4.63;2.33;;;;;;;18.97;38.87;101098.59;5040838;28;20043;-69
2022/01/07 01:43:32;;;;;;;2.67;2.00;;;;;;;19.15;38.89;101114.22;5060523;28;20044;-68
2022/01/07 01:45:58;;;;;;;3.75;2.10;;;;;;;19.14;39.05;101107.31;5056719;28;20260;-69
2022/01/07 01:48:24;;;;;;;2.97;2.30;;;;;;;19.09;39.17;101096.44;5056052;28;20158;-69
2022/01/07 01:50:51;;;;;;;4.50;2.33;;;;;;;19.12;39.11;101104.00;5059511;28;20119;-68
2022/01/07 01:53:17;;;;;;;4.63;2.38;;;;;;;19.16;38.90;101092.13;5056953;28;20139;-68
2022/01/07 01:55:44;;;;;;;3.65;2.20;;;;;;;19.15;38.85;101091.28;5060938;28;20059;-69
2022/01/07 01:58:11;;;;;;;4.72;2.08;;;;;;;19.18;38.84;101090.94;5054335;28;20103;-68
2022/01/07 02:00:38;;;;;;;2.45;1.90;;;;;;;19.20;38.76;101086.31;5061242;28;20444;-68
2022/01/07 02:03:05;;;;;;;3.42;2.30;;;;;;;19.04;39.16;101091.66;5059011;28;20040;-68
2022/01/07 02:05:31;;;;;;;4.45;2.30;;;;;;;19.11;39.02;101079.44;5057690;28;20055;-68
2022/01/07 02:07:57;;;;;;;2.85;2.00;;;;;;;19.04;39.04;101075.81;5058042;28;20041;-68
2022/01/07 02:10:23;;;;;;;4.35;2.30;;;;;;;19.01;38.94;101069.03;5056886;28;20048;-68
2022/01/07 02:12:49;;;;;;;3.83;2.50;;;;;;;19.01;38.99;101071.69;5059147;28;20033;-68
2022/01/07 02:15:16;;;;;;;4.22;2.15;;;;;;;19.06;39.03;101070.38;5058917;28;20047;-68
2022/01/07 02:17:45;;;;;;;3.90;2.30;;;;;;;19.01;39.14;101052.38;5061068;28;20036;-69
2022/01/07 02:20:13;;;;;;;2.55;2.10;;;;;;;18.67;39.08;101010.41;5057528;28;20659;-69
2022/01/07 02:22:40;;;;;;;3.95;2.15;;;;;;;19.01;39.20;101057.66;5055340;28;20047;-69
2022/01/07 02:25:06;;;;;;;3.47;2.50;;;;;;;18.92;39.16;101048.13;5060335;28;20040;-69
2022/01/07 02:27:38;;;;;;;5.10;2.22;;;;;;;18.90;39.32;101048.31;5058495;28;20032;-68
2022/01/07 02:30:07;;;;;;;2.88;2.28;;;;;;;18.97;39.15;101051.09;5059257;28;20507;-68
2022/01/07 02:32:33;;;;;;;3.63;2.50;;;;;;;19.00;38.98;101045.47;5060446;28;20668;-69
2022/01/07 02:34:59;;;;;;;2.75;2.20;;;;;;;19.01;39.08;101047.09;5058846;28;20025;-68
2022/01/07 02:37:24;;;;;;;3.42;2.30;;;;;;;18.82;38.94;101008.72;5060488;28;20505;-68
2022/01/07 02:39:51;;;;;;;3.92;2.20;;;;;;;19.05;39.05;101042.34;5058439;28;20028;-68
2022/01/07 02:42:17;;;;;;;3.83;2.25;;;;;;;18.98;38.89;101032.44;5038327;28;20067;-69
2022/01/07 02:44:42;;;;;;;3.60;2.20;;;;;;;18.96;38.82;101026.50;5055942;28;20498;-69
2022/01/07 02:47:08;;;;;;;3.80;2.35;;;;;;;18.75;39.03;101006.94;5056291;28;20036;-68
2022/01/07 02:49:34;;;;;;;4.88;2.53;;;;;;;18.87;39.04;101024.91;5059770;28;20045;-68
2022/01/07 02:51:59;;;;;;;3.08;2.08;;;;;;;18.82;39.28;101018.47;5056412;28;20068;-68
2022/01/07 02:54:25;;;;;;;4.13;2.45;;;;;;;18.81;39.12;101008.91;5059008;28;20099;-69
2022/01/07 02:56:50;;;;;;;3.20;2.03;;;;;;;18.92;39.19;101025.22;5058110;28;20103;-68
2022/01/07 02:59:16;;;;;;;3.05;2.00;;;;;;;18.83;39.08;101010.38;5059049;28;20540;-69
2022/01/07 03:01:41;;;;;;;3.28;2.25;;;;;;;18.84;39.04;101012.00;5057612;28;20044;-68
2022/01/07 03:04:07;;;;;;;4.43;3.17;;;;;;;18.95;38.83;101005.56;5060105;28;20033;-68
2022/01/07 03:06:34;;;;;;;3.70;2.20;;;;;;;18.98;38.97;101015.78;5061617;28;20539;-68
2022/01/07 03:09:00;;;;;;;3.28;2.35;;;;;;;18.86;39.03;100999.50;5062057;28;20047;-68
2022/01/07 03:11:26;;;;;;;3.53;2.42;;;;;;;18.89;39.09;101004.44;5061391;28;20045;-68
2022/01/07 03:13:52;;;;;;;3.85;2.40;;;;;;;18.92;39.00;101013.81;5045361;28;20072;-68
2022/01/07 03:16:18;;;;;;;3.70;2.30;;;;;;;18.88;38.92;100996.69;5061355;28;20048;-69
2022/01/07 03:18:44;;;;;;;3.47;2.58;;;;;;;18.80;39.06;100983.50;5059051;28;20083;-68
2022/01/07 03:21:10;;;;;;;4.35;2.42;;;;;;;18.85;39.01;100989.09;5062691;28;20032;-68
2022/01/07 03:23:40;;;;;;;3.50;2.20;;;;;;;18.89;38.83;100985.16;5060084;28;20021;-69
2022/01/07 03:26:07;;;;;;;4.72;2.35;;;;;;;18.86;39.04;100990.75;5060473;28;20076;-68
2022/01/07 03:28:33;;;;;;;3.97;2.47;;;;;;;18.73;39.02;100980.72;5060228;28;20379;-68
2022/01/07 03:30:58;;;;;;;3.67;2.20;;;;;;;18.72;39.10;100963.25;5062330;28;20048;-69
2022/01/07 03:33:24;;;;;;;3.40;2.20;;;;;;;18.75;39.16;100983.19;5062079;28;20021;-69
2022/01/07 03:35:50;;;;;;;3.58;2.30;;;;;;;18.67;39.30;100962.91;5061336;28;20040;-68
2022/01/07 03:38:16;;;;;;;3.85;2.38;;;;;;;18.67;39.40;100966.41;5061737;28;20097;-68
2022/01/07 03:40:41;;;;;;;4.18;2.20;;;;;;;18.73;39.02;100970.19;5061110;28;20113;-69
2022/01/07 03:43:07;;;;;;;3.13;1.80;;;;;;;18.71;39.13;100975.63;5054934;28;20052;-69
2022/01/07 03:45:33;;;;;;;3.17;2.40;;;;;;;18.76;39.13;100963.75;5060978;28;20032;-68
2022/01/07 03:47:59;;;;;;;4.32;2.20;;;;;;;18.58;39.23;100943.63;5044697;28;20036;-68
2022/01/07 03:50:28;;;;;;;3.90;2.35;;;;;;;18.73;39.26;100962.25;5059584;28;20083;-68
2022/01/07 03:52:56;;;;;;;3.05;2.03;;;;;;;18.75;39.03;100962.09;5059496;28;20927;-68
2022/01/07 03:55:24;;;;;;;2.80;1.95;;;;;;;18.79;39.08;100952.84;5061436;28;20115;-68
2022/01/07 03:57:50;;;;;;;4.55;2.40;;;;;;;18.77;39.03;100950.38;5058976;28;20036;-68
2022/01/07 04:00:22;;;;;;;3.22;2.03;;;;;;;18.69;39.09;100947.78;5063302;28;20032;-68
2022/01/07 04:02:48;;;;;;;2.60;2.00;;;;;;;18.65;39.06;100939.34;5058941;28;20043;-68
2022/01/07 04:05:16;;;;;;;3.80;2.95;;;;;;;18.62;39.08;100928.28;5060117;28;20048;-68
2022/01/07 04:07:41;;;;;;;3.03;2.00;;;;;;;18.69;38.89;100926.66;5059503;28;20052;-69
2022/01/07 04:10:07;;;;;;;2.97;2.05;;;;;;;18.70;38.92;100925.69;5061462;28;21261;-69
2022/01/07 04:12:33;;;;;;;3.55;2.40;;;;;;;18.69;38.86;100930.13;5058153;28;20500;-70
2022/01/07 04:15:08;;;;;;;2.80;2.50;;;;;;;18.60;39.17;100920.56;5064914;28;20524;-69
2022/01/07 04:17:38;;;;;;;3.08;2.10;;;;;;;18.62;39.11;100912.47;5058703;28;20387;-68
2022/01/07 04:20:04;;;;;;;;;;;;;;;18.80;38.69;100901.72;5045534;28;20123;-68
2022/01/07 04:22:30;;;;;;;2.50;2.03;;;;;;;18.93;38.53;100904.66;5059902;28;19921;-68
2022/01/07 04:24:55;;;;;;;3.03;2.20;;;;;;;19.01;38.42;100915.97;5062278;28;20063;-68
2022/01/07 04:27:21;;;;;;;3.90;2.22;;;;;;;19.11;38.39;100915.78;5063155;28;20412;-68
2022/01/07 04:29:46;;;;;;;2.60;2.22;;;;;;;19.13;38.32;100908.50;5061365;28;20479;-68
2022/01/07 04:32:12;;;;;;;3.40;2.17;;;;;;;19.23;38.30;100903.03;5057135;28;20040;-69
2022/01/07 04:34:37;;;;;;;2.83;2.00;;;;;;;19.30;38.21;100906.59;5058797;28;20033;-69
2022/01/07 04:37:03;;;;;;;2.35;1.92;;;;;;;19.47;38.05;100899.41;5061669;28;20036;-69
2022/01/07 04:39:28;;;;;;;4.13;2.13;;;;;;;19.62;37.96;100884.47;5058280;28;20039;-69
2022/01/07 04:41:55;;;;;;;3.42;2.75;;;;;;;19.79;37.57;100890.44;5057748;28;20045;-68
2022/01/07 04:44:21;;;;;;;2.30;2.10;;;;;;;19.90;37.57;100895.28;5059321;28;20041;-68
2022/01/07 04:46:47;;;;;;;3.30;2.00;;;;;;;19.98;37.62;100892.59;5057844;28;20055;-69
2022/01/07 04:49:12;;;;;;;3.00;2.00;;;;;;;20.04;37.49;100886.56;5060190;28;20128;-69
2022/01/07 04:51:38;;;;;;;2.25;1.95;;;;;;;20.08;37.53;100890.50;5026698;28;20040;-68
2022/01/07 04:54:03;;;;;;;2.45;1.75;;;;;;;20.09;37.46;100870.16;5062280;28;20039;-68
2022/01/07 04:56:29;;;;;;;2.95;1.98;;;;;;;20.13;37.50;100874.94;5062246;28;20059;-68
2022/01/07 04:58:54;;;;;;;2.78;1.98;;;;;;;20.23;37.44;100872.84;5057989;28;20036;-69
2022/01/07 05:01:20;;;;;;;3.47;2.10;;;;;;;20.31;37.40;100871.94;5058659;28;20051;-68
2022/01/07 05:03:45;;;;;;;2.78;2.00;;;;;;;20.41;37.15;100875.16;5062250;28;20380;-68
2022/01/07 05:06:43;;;;;;;3.17;2.25;;;;;;;20.54;36.89;100869.25;5060133;28;20051;-69
2022/01/07 05:08:56;;;;;;;2.38;2.08;;;;;;;20.65;36.82;100871.44;5057695;28;20042;-68
2022/01/07 05:11:22;;;;;;;3.45;1.70;;;;;;;20.61;37.14;100874.59;5062531;28;20652;-68
2022/01/07 05:13:47;;;;;;;2.83;1.98;;;;;;;20.69;36.95;100858.66;5060637;28;20041;-68
2022/01/07 05:16:13;;;;;;;2.50;2.30;;;;;;;20.65;36.91;100857.38;5040337;28;20040;-69
2022/01/07 05:18:38;;;;;;;2.97;1.80;;;;;;;20.64;36.99;100866.28;5054308;28;20047;-69
2022/01/07 05:21:04;;;;;;;3.20;2.05;;;;;;;20.65;36.92;100852.91;5058969;28;20040;-69
2022/01/07 05:23:29;;;;;;;2.35;1.70;;;;;;;20.71;36.95;100854.81;5055065;28;20596;-68
2022/01/07 05:25:55;;;;;;;2.50;2.10;;;;;;;20.70;36.90;100852.34;5057881;28;20028;-68
2022/01/07 05:28:20;;;;;;;2.05;1.75;;;;;;;20.76;36.87;100849.78;5052458;28;20666;-69
2022/01/07 05:30:46;;;;;;;2.85;2.00;;;;;;;20.69;36.82;100845.41;5060539;28;20063;-69
2022/01/07 05:33:11;;;;;;;1.70;1.60;;;;;;;20.77;36.80;100848.75;5058400;28;20047;-69
2022/01/07 05:35:37;;;;;;;2.53;1.92;;;;;;;20.72;37.08;100845.88;5061613;28;20040;-69
2022/01/07 05:38:02;;;;;;;3.10;1.85;;;;;;;20.74;36.96;100832.44;5059361;28;20937;-69
2022/01/07 05:40:28;;;;;;;2.13;1.80;;;;;;;20.80;36.76;100855.50;5060604;28;20036;-69
2022/01/07 05:42:53;;;;;;;2.85;1.98;;;;;;;20.78;36.88;100836.34;5056832;28;20068;-69
2022/01/07 05:45:19;;;;;;;3.58;2.70;;;;;;;20.63;37.26;100833.72;5059115;28;20044;-69
2022/01/07 05:47:44;;;;;;;3.13;1.80;;;;;;;20.73;36.88;100838.75;5057728;28;20044;-69
2022/01/07 05:50:10;;;;;;;2.45;1.92;;;;;;;20.89;36.80;100843.81;5058566;28;20402;-69
2022/01/07 05:52:36;;;;;;;2.13;1.67;;;;;;;21.00;36.73;100853.09;5060399;28;20097;-69
2022/01/07 05:55:03;;;;;;;2.42;1.90;;;;;;;20.97;36.72;100842.88;5059346;28;20398;-67
2022/01/07 05:57:28;;;;;;;2.38;1.77;;;;;;;20.92;36.69;100818.81;5057930;28;20032;-68
2022/01/07 05:59:54;;;;;;;3.08;1.92;;;;;;;21.06;36.54;100832.00;5058710;28;20070;-69
2022/01/07 06:02:19;;;;;;;1.77;1.60;;;;;;;21.07;36.68;100824.88;5057356;28;20040;-68
2022/01/07 06:04:45;;;;;;;3.67;1.85;;;;;;;21.06;36.54;100826.72;5060436;28;20040;-69
2022/01/07 06:07:10;;;;;;;1.67;1.50;;;;;;;21.05;36.67;100821.59;5057294;28;20044;-69
2022/01/07 06:09:36;;;;;;;2.20;1.75;;;;;;;21.00;36.85;100827.44;5059907;28;20028;-69
2022/01/07 06:12:02;;;;;;;2.03;1.70;;;;;;;21.02;36.74;100809.56;5059658;28;20055;-68
2022/01/07 06:14:28;;;;;;;2.72;2.00;;;;;;;20.95;36.78;100821.06;5058451;28;20021;-68
2022/01/07 06:16:54;;;;;;;1.73;1.50;;;;;;;20.98;36.72;100804.81;5057488;28;20707;-68
2022/01/07 06:19:20;;;;;;;2.78;1.83;;;;;;;20.97;36.82;100829.66;5060338;28;20048;-68
2022/01/07 06:21:46;;;;;;;1.83;1.65;;;;;;;20.92;37.01;100822.28;5059616;28;20044;-67
2022/01/07 06:24:11;;;;;;;3.00;1.88;;;;;;;20.89;36.97;100843.81;5056472;28;20117;-67
2022/01/07 06:26:38;;;;;;;2.35;1.80;;;;;;;20.83;37.04;100830.53;5057313;28;20036;-68
2022/01/07 06:29:04;;;;;;;2.47;1.83;;;;;;;20.74;37.30;100835.09;5056799;28;20106;-68
2022/01/07 06:31:29;;;;;;;1.98;1.77;;;;;;;20.68;37.27;100830.56;5054458;28;20036;-68
2022/01/07 06:33:56;;;;;;;1.85;1.55;;;;;;;20.71;37.24;100833.63;5061282;28;20041;-68
2022/01/07 06:36:22;;;;;;;2.28;1.60;;;;;;;20.71;37.24;100828.34;5061543;28;20431;-69
2022/01/07 06:38:47;;;;;;;1.98;1.80;;;;;;;20.83;37.12;100836.63;5054641;28;20047;-68
2022/01/07 06:41:13;;;;;;;1.77;1.40;;;;;;;20.87;37.03;100824.66;5064348;28;20044;-68
2022/01/07 06:43:39;;;;;;;2.17;1.55;;;;;;;20.86;36.96;100840.75;5061362;28;20045;-68
2022/01/07 06:46:06;;;;;;;3.30;1.60;;;;;;;20.91;36.92;100838.34;5061796;28;20048;-68
2022/01/07 06:48:31;;;;;;;2.00;1.77;;;;;;;21.03;36.59;100837.69;5060489;28;20037;-68
2022/01/07 06:50:57;;;;;;;1.90;1.73;;;;;;;21.15;36.50;100839.81;5061572;28;20036;-68
2022/01/07 06:53:22;;;;;;;4.35;2.08;;;;;;;21.15;36.63;100837.16;5060548;28;20090;-68
2022/01/07 06:55:48;;;;;;;3.08;1.90;;;;;;;21.21;36.49;100826.66;5065038;28;20486;-68
2022/01/07 06:58:13;;;;;;;2.45;1.75;;;;;;;21.25;36.35;100838.53;5060270;28;20037;-68
2022/01/07 07:00:39;;;;;;;2.25;1.92;;;;;;;21.31;36.37;100816.59;5056500;28;20040;-68
2022/01/07 07:03:04;;;;;;;2.10;1.70;;;;;;;21.28;36.46;100829.41;5062147;28;20514;-68
2022/01/07 07:05:30;;;;;;;2.05;1.70;;;;;;;21.25;36.44;100820.00;5060605;28;20043;-68
2022/01/07 07:07:55;;;;;;;3.03;1.60;;;;;;;21.23;36.54;100829.94;5063460;28;20060;-68
2022/01/07 07:10:21;;;;;;;1.67;1.52;;;;;;;21.28;36.48;100816.97;5062776;28;20044;-68
2022/01/07 07:12:47;;;;;;;2.05;1.80;;;;;;;21.29;36.57;100829.19;5063801;28;20036;-68
2022/01/07 07:15:13;;;;;;;1.95;1.58;;;;;;;21.32;36.33;100830.66;5058804;28;20040;-68
2022/01/07 07:17:39;;;;;;;2.80;1.65;;;;;;;21.22;36.63;100832.78;5061199;28;20382;-68
2022/01/07 07:20:04;;;;;;;2.38;1.50;;;;;;;21.19;36.62;100826.03;5061705;28;20040;-68
2022/01/07 07:22:30;;;;;;;2.95;1.80;;;;;;;21.08;36.82;100826.53;5035205;28;20127;-68
2022/01/07 07:24:56;;;;;;;2.45;1.70;;;;;;;21.10;36.65;100817.38;5064669;28;20040;-68
2022/01/07 07:27:22;;;;;;;2.28;1.80;;;;;;;21.06;36.75;100823.25;5064844;28;20533;-68
2022/01/07 07:29:47;;;;;;;1.70;1.58;;;;;;;21.03;37.11;100827.09;5045230;28;20033;-68
2022/01/07 07:32:15;;;;;;;2.72;1.92;;;;;;;20.97;37.03;100808.47;5063221;28;20037;-68
2022/01/07 07:34:57;;;;;;;1.58;1.48;;;;;;;20.97;36.93;100813.75;5063629;28;20029;-68
2022/01/07 07:37:22;;;;;;;1.50;1.40;;;;;;;20.99;36.90;100815.22;5059551;28;20696;-68
2022/01/07 07:39:48;;;;;;;1.95;1.60;;;;;;;20.97;37.05;100830.47;5056554;28;20036;-68
2022/01/07 07:42:13;;;;;;;2.25;1.85;;;;;;;20.87;36.91;100818.56;5059284;28;20134;-68
2022/01/07 07:44:40;;;;;;;1.60;1.50;;;;;;;20.91;37.07;100825.09;5061466;28;20033;-68
2022/01/07 07:47:05;;;;;;;1.70;1.52;;;;;;;20.96;37.01;100831.47;5060288;28;20040;-68
2022/01/07 07:49:31;;;;;;;2.35;1.95;;;;;;;20.98;36.85;100818.88;5043443;28;20810;-68
2022/01/07 07:51:57;;;;;;;2.75;1.90;;;;;;;20.86;36.98;100816.91;5059064;28;20048;-67
2022/01/07 07:54:22;;;;;;;2.83;2.15;;;;;;;20.95;37.00;100832.47;5061175;28;20037;-68
2022/01/07 07:56:48;;;;;;;1.70;1.60;;;;;;;21.09;36.76;100825.50;5061308;28;20040;-68
2022/01/07 07:59:13;;;;;;;1.70;1.60;;;;;;;21.19;36.46;100826.03;5060276;28;20046;-67
2022/01/07 08:01:39;;;;;;;1.50;1.40;;;;;;;21.02;36.73;100812.22;5059655;28;20563;-68
2022/01/07 08:04:04;;;;;;;1.98;1.63;;;;;;;21.10;36.73;100816.56;5063662;28;20048;-67
2022/01/07 08:06:30;;;;;;;2.15;1.75;;;;;;;20.97;36.88;100814.59;5062516;28;20025;-67
2022/01/07 08:08:56;;;;;;;1.98;1.55;;;;;;;20.92;37.05;100809.03;5060810;28;20036;-68
2022/01/07 08:11:24;;;;;;;2.00;1.67;;;;;;;20.89;37.11;100816.53;5038528;28;20183;-67
2022/01/07 08:16:34;;;;;;;1.75;1.60;;;;;;;21.00;36.90;100837.22;5057342;28;20090;-66
2022/01/07 08:19:00;;;;;;;2.08;1.63;;;;;;;20.97;36.95;100840.22;5060535;28;20075;-66
2022/01/07 08:21:28;;;;;;;2.05;1.70;;;;;;;20.91;37.04;100843.63;5059528;28;20032;-67
2022/01/07 08:23:55;;;;;;;2.75;1.80;;;;;;;21.08;36.59;100829.97;5062601;28;20694;-67
2022/01/07 08:26:22;;;;;;;1.73;1.63;;;;;;;21.17;36.58;100830.66;5058275;28;20426;-67
2022/01/07 08:28:52;;;;;;;2.00;1.63;;;;;;;21.09;36.68;100818.38;5060632;28;20115;-66
2022/01/07 08:34:53;;;;;;;;;;;;;;;21.28;36.27;100830.22;5056296;28;20549;-66
2022/01/07 08:36:57;;;;;;;2.42;1.70;;;;;;;21.44;36.08;100821.19;5045223;28;20071;-66
2022/01/07 08:39:24;;;;;;;2.20;1.60;;;;;;;21.47;36.23;100820.81;5063229;28;20046;-66
2022/01/07 08:41:50;;;;;;;1.70;1.60;;;;;;;21.41;36.21;100827.69;5061197;28;20103;-66
2022/01/07 08:44:16;;;;;;;1.77;1.50;;;;;;;21.48;36.09;100827.75;5061831;28;20459;-66
2022/01/07 08:46:43;;;;;;;2.63;1.55;;;;;;;21.46;36.35;100826.31;5063032;28;20094;-66
2022/01/07 08:49:08;;;;;;;2.33;1.98;;;;;;;21.46;36.17;100831.59;5063322;28;20040;-66
2022/01/07 08:51:34;;;;;;;2.33;1.70;;;;;;;21.24;36.16;100799.81;5050199;28;20040;-66
2022/01/07 08:54:00;;;;;;;2.70;1.73;;;;;;;21.33;36.62;100819.03;5055643;28;20107;-66
2022/01/07 08:56:26;;;;;;;3.75;2.15;;;;;;;21.35;36.44;100823.13;5055110;28;20044;-66
2022/01/07 08:58:56;;;;;;;1.92;1.70;;;;;;;21.31;36.37;100829.00;5061749;28;20047;-66
2022/01/07 09:01:22;;;;;;;2.38;1.60;;;;;;;21.19;36.71;100836.63;5059562;28;20061;-66
2022/01/07 09:03:48;;;;;;;2.10;1.52;;;;;;;21.08;37.15;100829.16;5053242;28;20557;-66
2022/01/07 09:06:14;;;;;;;1.98;1.80;;;;;;;21.09;36.96;100834.28;5060301;28;20036;-66
2022/01/07 09:08:39;;;;;;;2.90;1.80;;;;;;;21.06;36.99;100832.00;5064054;28;20576;-66
2022/01/07 09:11:05;;;;;;;3.47;1.90;;;;;;;21.00;37.01;100822.16;5062642;28;20482;-67
2022/01/07 09:13:30;;;;;;;2.00;1.80;;;;;;;21.09;36.83;100833.44;5059187;28;20510;-66
2022/01/07 09:15:56;;;;;;;2.92;2.00;;;;;;;21.06;36.80;100832.00;5056781;28;20036;-66
2022/01/07 09:18:21;;;;;;;2.22;1.90;;;;;;;21.02;36.84;100822.81;5058336;28;20051;-66
2022/01/07 09:20:49;;;;;;;1.92;1.52;;;;;;;20.99;36.91;100815.22;5061661;28;20048;-66
2022/01/07 09:23:15;;;;;;;3.28;2.00;;;;;;;21.13;36.74;100834.72;5055177;28;20040;-66
2022/01/07 09:25:41;;;;;;;2.15;1.60;;;;;;;21.09;36.55;100844.03;5057663;28;20547;-66
2022/01/07 09:28:09;;;;;;;2.72;1.70;;;;;;;21.03;36.72;100831.56;5055490;28;20040;-65
2022/01/07 09:30:36;;;;;;;1.58;1.48;;;;;;;21.00;36.82;100829.25;5058583;28;20033;-64
2022/01/07 09:33:02;;;;;;;2.78;1.88;;;;;;;20.89;37.07;100835.88;5053011;28;20394;-64
2022/01/07 09:35:28;;;;;;;2.38;1.95;;;;;;;20.89;37.02;100821.84;5057207;28;20391;-64
2022/01/07 09:37:54;;;;;;;2.90;1.83;;;;;;;20.91;36.96;100822.47;5055150;28;20052;-64
2022/01/07 09:40:20;;;;;;;2.50;1.92;;;;;;;21.00;36.85;100832.72;5058607;28;20124;-66
2022/01/07 09:43:13;;;;;;;4.85;2.00;;;;;;;20.98;36.85;100824.16;5057776;28;20061;-67
2022/01/07 09:45:39;;;;;;;4.32;2.00;;;;;;;21.05;36.86;100827.72;5053554;28;20171;-66
2022/01/07 09:48:06;;;;;;;2.67;1.80;;;;;;;21.10;36.51;100830.63;5062001;28;20131;-67
2022/01/07 09:50:33;;;;;;;3.28;2.05;;;;;;;21.12;36.60;100818.00;5057611;28;20512;-64
2022/01/07 09:53:12;;;;;;;2.83;1.95;;;;;;;21.10;36.67;100808.63;5060827;28;20581;-66
2022/01/07 09:55:39;;;;;;;2.92;1.90;;;;;;;21.13;36.83;100813.53;5060383;28;20089;-66
2022/01/07 09:58:05;;;;;;;3.03;2.00;;;;;;;21.17;36.74;100827.19;5058828;28;20115;-66
2022/01/07 10:00:38;;;;;;;4.05;2.05;;;;;;;21.09;36.68;100834.28;5059804;28;20067;-66
2022/01/07 10:03:07;;;;;;;3.03;1.80;;;;;;;21.16;36.70;100854.69;5058797;28;20431;-65
2022/01/07 10:05:39;;;;;;;3.00;2.08;;;;;;;21.15;36.89;100840.63;5056511;28;20569;-66
2022/01/07 10:08:26;;;;;;;2.90;2.08;;;;;;;21.21;36.47;100845.19;5056532;28;20028;-66
2022/01/07 10:11:14;;;;;;;4.75;2.13;;;;;;;21.21;36.64;100844.38;5057980;28;20375;-66
2022/01/07 10:13:41;;;;;;;4.40;1.90;;;;;;;21.26;36.61;100840.19;5058542;28;20360;-66
2022/01/07 10:16:19;;;;;;;4.57;1.95;;;;;;;21.17;36.58;100840.44;5060780;28;20077;-66
2022/01/07 10:18:47;;;;;;;4.68;2.15;;;;;;;21.09;36.64;100828.16;5060432;28;20727;-66
2022/01/07 10:21:14;;;;;;;2.42;2.22;;;;;;;21.10;36.61;100808.63;5058061;28;20054;-66
2022/01/07 10:23:39;;;;;;;3.05;2.08;;;;;;;21.13;36.72;100795.00;5054809;28;20033;-66
2022/01/07 10:26:13;;;;;;;3.63;2.25;;;;;;;21.06;36.84;100802.06;5057596;28;20052;-66
2022/01/07 10:28:38;;;;;;;3.35;2.08;;;;;;;20.96;36.93;100810.28;5058982;28;20532;-66
2022/01/07 10:31:07;;;;;;;4.50;2.35;;;;;;;20.99;36.87;100809.91;5038682;28;20047;-66
2022/01/07 10:33:41;;;;;;;4.33;2.30;;;;;;;21.00;36.74;100802.78;5054479;28;20052;-66
2022/01/07 10:36:06;;;;;;;3.22;2.28;;;;;;;20.98;36.74;100797.69;5055748;28;20059;-66
2022/01/07 10:38:48;;;;;;;3.50;2.35;;;;;;;21.02;37.05;100801.63;5045416;28;20494;-66
2022/01/07 10:41:14;;;;;;;3.88;2.30;;;;;;;20.98;36.85;100800.34;5058615;28;20072;-66
2022/01/07 10:43:40;;;;;;;2.97;2.33;;;;;;;20.99;36.63;100804.63;5057721;28;20198;-66
2022/01/07 10:46:21;;;;;;;2.40;2.17;;;;;;;20.94;36.99;100801.72;5055988;28;20052;-66
2022/01/07 10:49:00;;;;;;;4.80;2.20;;;;;;;21.00;36.59;100784.25;5056976;28;20050;-66
2022/01/07 10:51:50;;;;;;;3.55;2.10;;;;;;;21.09;36.52;100778.66;5059371;28;20049;-66
2022/01/07 10:54:17;;;;;;;3.60;2.58;;;;;;;21.17;37.12;100784.84;5054299;28;20029;-66
2022/01/07 10:56:47;;;;;;;3.08;2.15;;;;;;;21.26;36.96;100797.00;5058785;28;20124;-66
2022/01/07 10:59:20;;;;;;;6.30;2.20;;;;;;;21.28;37.57;100787.03;5056546;28;20673;-65
2022/01/07 11:01:48;;;;;;;3.08;1.92;;;;;;;21.10;37.97;100790.09;5057178;28;20367;-64
2022/01/07 11:04:19;;;;;;;2.42;2.03;;;;;;;21.06;37.65;100792.28;5057039;28;20509;-65
2022/01/07 11:06:47;;;;;;;3.83;1.83;;;;;;;21.09;37.70;100799.84;5055881;28;20036;-65
2022/01/07 11:09:15;;;;;;;3.13;1.98;;;;;;;20.99;37.86;100788.75;5054657;28;20689;-65
2022/01/07 11:11:56;;;;;;;2.15;1.80;;;;;;;21.05;37.61;100776.59;5059380;28;20043;-65
2022/01/07 11:14:31;;;;;;;2.05;1.77;;;;;;;20.95;37.60;100763.66;5054593;28;20035;-64
2022/01/07 11:17:03;;;;;;;2.53;1.98;;;;;;;21.02;37.67;100774.34;5057016;28;20497;-65
2022/01/07 11:19:41;;;;;;;3.17;1.80;;;;;;;21.25;37.40;100774.97;5030062;28;21468;-65
2022/01/07 11:22:11;;;;;;;2.60;1.80;;;;;;;21.45;36.84;100772.50;5055794;28;20040;-64
2022/01/07 11:24:36;;;;;;;5.95;2.30;;;;;;;21.49;36.62;100762.34;5041193;28;20092;-65
2022/01/07 11:27:23;;;;;;;2.92;1.70;;;;;;;21.47;36.58;100769.66;5060223;28;20054;-64
2022/01/07 11:29:53;;;;;;;2.95;1.83;;;;;;;21.59;36.30;100770.78;5058678;28;20458;-64
2022/01/07 11:32:25;;;;;;;4.60;1.75;;;;;;;21.48;36.75;100771.28;5060014;28;20040;-65